sensor_id;sensor_type;location;lat;lon;timestamp;pressure;altitude;pressure_sealevel;temperature;humidity
15568;BME280;7885;42.596;23.044;2023-10-31T00:01:20;93179.91;;;12.31;79.95
15568;BME280;7885;42.596;23.044;2023-10-31T00:03:48;93165.16;;;12.18;79.78
15568;BME280;7885;42.596;23.044;2023-10-31T00:06:14;93185.41;;;12.24;79.83
15568;BME280;7885;42.596;23.044;2023-10-31T00:08:41;93183.13;;;12.15;80.60
15568;BME280;7885;42.596;23.044;2023-10-31T00:11:09;93155.16;;;11.94;78.30
15568;BME280;7885;42.596;23.044;2023-10-31T00:13:36;93168.81;;;11.87;82.34
15568;BME280;7885;42.596;23.044;2023-10-31T00:16:03;93149.81;;;11.58;83.08
15568;BME280;7885;42.596;23.044;2023-10-31T00:18:30;93166.53;;;11.68;84.85
15568;BME280;7885;42.596;23.044;2023-10-31T00:20:56;93171.19;;;11.67;85.82
15568;BME280;7885;42.596;23.044;2023-10-31T00:23:23;93130.00;;;11.44;86.62
15568;BME280;7885;42.596;23.044;2023-10-31T00:25:50;93140.50;;;11.42;87.08
15568;BME280;7885;42.596;23.044;2023-10-31T00:28:19;93146.75;;;11.35;81.85
15568;BME280;7885;42.596;23.044;2023-10-31T00:30:46;93141.31;;;11.28;85.92
15568;BME280;7885;42.596;23.044;2023-10-31T00:33:13;93158.03;;;11.51;88.25
15568;BME280;7885;42.596;23.044;2023-10-31T00:35:46;93138.19;;;11.40;84.14
15568;BME280;7885;42.596;23.044;2023-10-31T00:38:12;93154.53;;;11.47;84.39
15568;BME280;7885;42.596;23.044;2023-10-31T00:40:39;93157.25;;;11.51;84.99
15568;BME280;7885;42.596;23.044;2023-10-31T00:43:06;93157.25;;;11.51;85.96
15568;BME280;7885;42.596;23.044;2023-10-31T00:45:34;93127.31;;;11.33;83.80
15568;BME280;7885;42.596;23.044;2023-10-31T00:48:01;93142.84;;;11.43;84.38
15568;BME280;7885;42.596;23.044;2023-10-31T00:50:28;93145.97;;;11.42;84.65
15568;BME280;7885;42.596;23.044;2023-10-31T00:52:54;93138.25;;;11.19;84.14
15568;BME280;7885;42.596;23.044;2023-10-31T00:55:21;93145.66;;;11.15;85.76
15568;BME280;7885;42.596;23.044;2023-10-31T00:57:48;93122.72;;;10.91;89.03
15568;BME280;7885;42.596;23.044;2023-10-31T01:00:15;93137.50;;;10.97;87.62
15568;BME280;7885;42.596;23.044;2023-10-31T01:02:44;93139.44;;;10.90;89.04
15568;BME280;7885;42.596;23.044;2023-10-31T01:05:11;93133.63;;;10.91;89.29
15568;BME280;7885;42.596;23.044;2023-10-31T01:07:37;93133.25;;;10.93;88.20
15568;BME280;7885;42.596;23.044;2023-10-31T01:10:05;93112.22;;;10.79;86.55
15568;BME280;7885;42.596;23.044;2023-10-31T01:12:32;93135.19;;;10.96;88.19
15568;BME280;7885;42.596;23.044;2023-10-31T01:14:58;93139.84;;;10.99;86.01
15568;BME280;7885;42.596;23.044;2023-10-31T01:17:25;93132.03;;;11.01;87.93
15568;BME280;7885;42.596;23.044;2023-10-31T01:19:53;93123.88;;;10.94;90.13
15568;BME280;7885;42.596;23.044;2023-10-31T01:22:20;93118.84;;;10.92;89.95
15568;BME280;7885;42.596;23.044;2023-10-31T01:24:47;93115.34;;;10.95;89.03
15568;BME280;7885;42.596;23.044;2023-10-31T01:27:13;93101.34;;;10.79;88.72
15568;BME280;7885;42.596;23.044;2023-10-31T01:29:40;93113.00;;;10.87;91.83
15568;BME280;7885;42.596;23.044;2023-10-31T01:32:07;93116.13;;;10.75;87.58
15568;BME280;7885;42.596;23.044;2023-10-31T01:34:33;93104.84;;;10.58;88.16
15568;BME280;7885;42.596;23.044;2023-10-31T01:37:01;93114.97;;;10.65;89.56
15568;BME280;7885;42.596;23.044;2023-10-31T01:39:28;93117.31;;;10.67;88.81
15568;BME280;7885;42.596;23.044;2023-10-31T01:41:55;93104.84;;;10.65;87.63
15568;BME280;7885;42.596;23.044;2023-10-31T01:44:22;93115.72;;;10.65;85.13
15568;BME280;7885;42.596;23.044;2023-10-31T01:46:48;93109.13;;;10.38;87.53
15568;BME280;7885;42.596;23.044;2023-10-31T01:49:15;93112.63;;;10.42;87.66
15568;BME280;7885;42.596;23.044;2023-10-31T01:51:42;93084.25;;;10.29;89.26
15568;BME280;7885;42.596;23.044;2023-10-31T01:54:12;93083.09;;;10.34;89.37
15568;BME280;7885;42.596;23.044;2023-10-31T01:56:40;93119.63;;;10.50;88.46
15568;BME280;7885;42.596;23.044;2023-10-31T01:59:07;93100.97;;;10.42;88.69
15568;BME280;7885;42.596;23.044;2023-10-31T02:01:37;93106.81;;;10.33;88.88
15568;BME280;7885;42.596;23.044;2023-10-31T02:04:04;93096.28;;;10.28;89.46
15568;BME280;7885;42.596;23.044;2023-10-31T02:06:31;93097.88;;;10.40;89.29
15568;BME280;7885;42.596;23.044;2023-10-31T02:08:58;93081.16;;;10.31;88.41
15568;BME280;7885;42.596;23.044;2023-10-31T02:11:26;93103.31;;;10.50;88.58
15568;BME280;7885;42.596;23.044;2023-10-31T02:13:53;93083.09;;;10.41;88.28
15568;BME280;7885;42.596;23.044;2023-10-31T02:16:19;93104.09;;;10.51;87.65
15568;BME280;7885;42.596;23.044;2023-10-31T02:18:46;93096.31;;;10.49;87.59
15568;BME280;7885;42.596;23.044;2023-10-31T02:21:13;93087.78;;;10.40;87.69
15568;BME280;7885;42.596;23.044;2023-10-31T02:23:41;93100.97;;;10.45;88.12
15568;BME280;7885;42.596;23.044;2023-10-31T02:26:08;93088.94;;;10.39;88.04
15568;BME280;7885;42.596;23.044;2023-10-31T02:28:34;93095.94;;;10.40;87.77
15568;BME280;7885;42.596;23.044;2023-10-31T02:31:01;93096.28;;;10.25;88.17
15568;BME280;7885;42.596;23.044;2023-10-31T02:33:28;93111.84;;;10.31;88.57
15568;BME280;7885;42.596;23.044;2023-10-31T02:35:55;93108.34;;;10.20;88.92
15568;BME280;7885;42.596;23.044;2023-10-31T02:38:21;93110.25;;;10.09;89.28
15568;BME280;7885;42.596;23.044;2023-10-31T02:40:49;93098.19;;;10.03;89.61
15568;BME280;7885;42.596;23.044;2023-10-31T02:43:16;93098.56;;;9.94;90.90
15568;BME280;7885;42.596;23.044;2023-10-31T02:45:43;93096.25;;;9.93;90.96
15568;BME280;7885;42.596;23.044;2023-10-31T02:48:09;93102.03;;;9.88;91.72
15568;BME280;7885;42.596;23.044;2023-10-31T02:50:36;93089.22;;;9.78;92.60
15568;BME280;7885;42.596;23.044;2023-10-31T02:53:03;93090.00;;;9.82;91.43
15568;BME280;7885;42.596;23.044;2023-10-31T02:55:29;93091.94;;;9.78;90.58
15568;BME280;7885;42.596;23.044;2023-10-31T02:57:57;93091.16;;;9.77;88.23
15568;BME280;7885;42.596;23.044;2023-10-31T03:00:24;93085.31;;;9.72;88.28
15568;BME280;7885;42.596;23.044;2023-10-31T03:02:52;93089.19;;;9.71;89.95
15568;BME280;7885;42.596;23.044;2023-10-31T03:05:18;93062.78;;;9.68;91.60
15568;BME280;7885;42.596;23.044;2023-10-31T03:07:45;93083.38;;;9.79;91.42
15568;BME280;7885;42.596;23.044;2023-10-31T03:10:12;93079.88;;;9.72;92.34
15568;BME280;7885;42.596;23.044;2023-10-31T03:12:38;93079.47;;;9.73;91.54
15568;BME280;7885;42.596;23.044;2023-10-31T03:15:07;93080.66;;;9.65;90.67
15568;BME280;7885;42.596;23.044;2023-10-31T03:17:34;93069.38;;;9.67;90.33
15568;BME280;7885;42.596;23.044;2023-10-31T03:20:01;93071.31;;;9.70;90.82
15568;BME280;7885;42.596;23.044;2023-10-31T03:22:28;93074.03;;;9.70;92.04
15568;BME280;7885;42.596;23.044;2023-10-31T03:24:54;93065.47;;;9.60;92.08
15568;BME280;7885;42.596;23.044;2023-10-31T03:27:21;93070.53;;;9.65;92.65
15568;BME280;7885;42.596;23.044;2023-10-31T03:29:48;93070.50;;;9.58;92.99
15568;BME280;7885;42.596;23.044;2023-10-31T03:32:16;93071.69;;;9.57;93.39
15568;BME280;7885;42.596;23.044;2023-10-31T03:34:43;93066.63;;;9.59;93.33
15568;BME280;7885;42.596;23.044;2023-10-31T03:37:09;93074.41;;;9.57;93.60
15568;BME280;7885;42.596;23.044;2023-10-31T03:39:36;93074.41;;;9.57;93.88
15568;BME280;7885;42.596;23.044;2023-10-31T03:42:03;93066.59;;;9.45;93.65
15568;BME280;7885;42.596;23.044;2023-10-31T03:44:30;93070.09;;;9.42;94.21
15568;BME280;7885;42.596;23.044;2023-10-31T03:46:57;93058.06;;;9.40;92.96
15568;BME280;7885;42.596;23.044;2023-10-31T03:49:25;93068.16;;;9.46;93.14
15568;BME280;7885;42.596;23.044;2023-10-31T03:51:51;93055.72;;;9.42;92.60
15568;BME280;7885;42.596;23.044;2023-10-31T03:54:18;93042.91;;;9.42;92.84
15568;BME280;7885;42.596;23.044;2023-10-31T03:56:45;93048.78;;;9.48;92.14
15568;BME280;7885;42.596;23.044;2023-10-31T03:59:13;93039.44;;;9.45;90.24
15568;BME280;7885;42.596;23.044;2023-10-31T04:01:39;93039.41;;;9.38;91.18
15568;BME280;7885;42.596;23.044;2023-10-31T04:04:06;93039.41;;;9.38;93.02
15568;BME280;7885;42.596;23.044;2023-10-31T04:06:34;93035.16;;;9.37;93.36
15568;BME280;7885;42.596;23.044;2023-10-31T04:09:03;93032.44;;;9.37;91.40
15568;BME280;7885;42.596;23.044;2023-10-31T04:11:30;93038.63;;;9.34;92.24
15568;BME280;7885;42.596;23.044;2023-10-31T04:13:57;93030.09;;;9.32;90.80
15568;BME280;7885;42.596;23.044;2023-10-31T04:16:23;93026.97;;;9.30;93.47
15568;BME280;7885;42.596;23.044;2023-10-31T04:18:50;93021.53;;;9.27;94.44
15568;BME280;7885;42.596;23.044;2023-10-31T04:21:17;93024.63;;;9.22;89.90
15568;BME280;7885;42.596;23.044;2023-10-31T04:23:45;93007.50;;;9.14;90.75
15568;BME280;7885;42.596;23.044;2023-10-31T04:26:11;93008.25;;;9.04;91.36
15568;BME280;7885;42.596;23.044;2023-10-31T04:28:39;93012.91;;;9.03;93.56
15568;BME280;7885;42.596;23.044;2023-10-31T04:31:05;93037.69;;;8.95;94.36
15568;BME280;7885;42.596;23.044;2023-10-31T04:33:32;93029.88;;;8.83;94.95
15568;BME280;7885;42.596;23.044;2023-10-31T04:35:59;93037.56;;;8.70;96.03
15568;BME280;7885;42.596;23.044;2023-10-31T04:38:26;93044.50;;;8.60;96.98
15568;BME280;7885;42.596;23.044;2023-10-31T04:40:54;93035.97;;;8.62;97.56
15568;BME280;7885;42.596;23.044;2023-10-31T04:43:20;93007.94;;;8.37;97.79
15568;BME280;7885;42.596;23.044;2023-10-31T04:45:47;93031.25;;;8.52;97.36
15568;BME280;7885;42.596;23.044;2023-10-31T04:48:14;93044.09;;;8.62;97.45
15568;BME280;7885;42.596;23.044;2023-10-31T04:50:40;93046.81;;;8.62;97.42
15568;BME280;7885;42.596;23.044;2023-10-31T04:53:07;93039.06;;;8.60;97.49
15568;BME280;7885;42.596;23.044;2023-10-31T04:55:34;93045.31;;;8.68;97.55
15568;BME280;7885;42.596;23.044;2023-10-31T04:58:02;93029.72;;;8.51;96.20
15568;BME280;7885;42.596;23.044;2023-10-31T05:00:28;93018.88;;;8.51;96.53
15568;BME280;7885;42.596;23.044;2023-10-31T05:02:55;93050.28;;;8.59;96.20
15568;BME280;7885;42.596;23.044;2023-10-31T05:05:23;93047.50;;;8.48;98.59
15568;BME280;7885;42.596;23.044;2023-10-31T05:07:50;93059.19;;;8.59;98.35
15568;BME280;7885;42.596;23.044;2023-10-31T05:10:16;93044.00;;;8.44;97.27
15568;BME280;7885;42.596;23.044;2023-10-31T05:12:43;93062.25;;;8.51;97.14
15568;BME280;7885;42.596;23.044;2023-10-31T05:15:11;93062.22;;;8.44;97.49
15568;BME280;7885;42.596;23.044;2023-10-31T05:17:38;93056.75;;;8.40;97.61
15568;BME280;7885;42.596;23.044;2023-10-31T05:20:05;93064.59;;;8.52;97.13
15568;BME280;7885;42.596;23.044;2023-10-31T05:22:32;93062.34;;;8.61;96.55
15568;BME280;7885;42.596;23.044;2023-10-31T05:24:59;93028.94;;;8.50;96.59
15568;BME280;7885;42.596;23.044;2023-10-31T05:27:25;93063.97;;;8.77;95.39
15568;BME280;7885;42.596;23.044;2023-10-31T05:29:52;93037.59;;;8.74;95.89
15568;BME280;7885;42.596;23.044;2023-10-31T05:32:20;93065.63;;;8.99;95.20
15568;BME280;7885;42.596;23.044;2023-10-31T05:34:47;93064.34;;;9.83;90.68
15568;BME280;7885;42.596;23.044;2023-10-31T05:37:14;93070.09;;;11.33;84.48
15568;BME280;7885;42.596;23.044;2023-10-31T05:39:40;93058.19;;;12.44;80.04
15568;BME280;7885;42.596;23.044;2023-10-31T05:42:07;93055.69;;;12.12;82.45
15568;BME280;7885;42.596;23.044;2023-10-31T05:44:34;93051.59;;;11.80;83.69
15568;BME280;7885;42.596;23.044;2023-10-31T05:47:01;93069.56;;;11.63;83.82
15568;BME280;7885;42.596;23.044;2023-10-31T05:49:29;93061.81;;;11.61;84.03
15568;BME280;7885;42.596;23.044;2023-10-31T05:51:55;93080.09;;;11.61;83.44
15568;BME280;7885;42.596;23.044;2023-10-31T05:54:22;93075.41;;;11.65;85.54
15568;BME280;7885;42.596;23.044;2023-10-31T05:56:50;93085.91;;;11.77;84.91
15568;BME280;7885;42.596;23.044;2023-10-31T05:59:16;93092.16;;;11.71;82.80
15568;BME280;7885;42.596;23.044;2023-10-31T06:01:43;93091.34;;;11.77;82.05
15568;BME280;7885;42.596;23.044;2023-10-31T06:04:10;93078.91;;;11.73;81.40
15568;BME280;7885;42.596;23.044;2023-10-31T06:06:38;93097.50;;;12.54;79.58
15568;BME280;7885;42.596;23.044;2023-10-31T06:09:05;93104.81;;;15.13;70.03
15568;BME280;7885;42.596;23.044;2023-10-31T06:11:32;93107.06;;;17.98;59.38
15568;BME280;7885;42.596;23.044;2023-10-31T06:13:58;93092.91;;;20.38;49.37
15568;BME280;7885;42.596;23.044;2023-10-31T06:16:25;93102.91;;;22.46;42.47
15568;BME280;7885;42.596;23.044;2023-10-31T06:18:52;93101.78;;;24.17;37.55
15568;BME280;7885;42.596;23.044;2023-10-31T06:21:19;93101.41;;;25.76;33.92
15568;BME280;7885;42.596;23.044;2023-10-31T06:23:47;93097.94;;;27.25;31.14
15568;BME280;7885;42.596;23.044;2023-10-31T06:26:13;93097.22;;;28.09;29.06
15568;BME280;7885;42.596;23.044;2023-10-31T06:35:23;93101.09;;;31.68;24.17
15568;BME280;7885;42.596;23.044;2023-10-31T06:37:51;93104.03;;;32.29;23.06
15568;BME280;7885;42.596;23.044;2023-10-31T06:40:19;93102.38;;;33.20;21.79
15568;BME280;7885;42.596;23.044;2023-10-31T06:42:45;93102.91;;;33.82;20.92
15568;BME280;7885;42.596;23.044;2023-10-31T06:45:12;93101.22;;;34.71;20.13
15568;BME280;7885;42.596;23.044;2023-10-31T06:47:39;93110.41;;;35.86;19.09
15568;BME280;7885;42.596;23.044;2023-10-31T06:50:08;93102.59;;;36.84;17.68
15568;BME280;7885;42.596;23.044;2023-10-31T06:52:35;93105.75;;;37.75;17.13
15568;BME280;7885;42.596;23.044;2023-10-31T06:55:02;93103.22;;;38.78;16.58
15568;BME280;7885;42.596;23.044;2023-10-31T06:57:30;93102.13;;;39.61;15.56
15568;BME280;7885;42.596;23.044;2023-10-31T06:59:57;93101.75;;;40.38;14.95
15568;BME280;7885;42.596;23.044;2023-10-31T07:02:24;93099.56;;;41.23;14.62
15568;BME280;7885;42.596;23.044;2023-10-31T07:04:51;93095.31;;;41.85;14.26
15568;BME280;7885;42.596;23.044;2023-10-31T07:07:18;93085.56;;;41.98;14.01
15568;BME280;7885;42.596;23.044;2023-10-31T07:09:44;93078.84;;;42.12;13.56
15568;BME280;7885;42.596;23.044;2023-10-31T07:12:11;93083.81;;;42.58;13.50
15568;BME280;7885;42.596;23.044;2023-10-31T07:14:39;93083.16;;;43.05;13.45
15568;BME280;7885;42.596;23.044;2023-10-31T07:17:06;93073.59;;;43.32;13.18
15568;BME280;7885;42.596;23.044;2023-10-31T07:19:32;93079.81;;;43.97;12.72
15568;BME280;7885;42.596;23.044;2023-10-31T07:21:59;93076.16;;;43.56;12.77
15568;BME280;7885;42.596;23.044;2023-10-31T07:24:26;93074.78;;;44.07;12.53
15568;BME280;7885;42.596;23.044;2023-10-31T07:36:59;93070.19;;;45.39;11.81
15568;BME280;7885;42.596;23.044;2023-10-31T07:39:26;93067.22;;;45.82;11.56
15568;BME280;7885;42.596;23.044;2023-10-31T07:41:52;93075.09;;;45.15;11.35
15568;BME280;7885;42.596;23.044;2023-10-31T07:44:19;93050.34;;;44.06;11.53
15568;BME280;7885;42.596;23.044;2023-10-31T07:46:46;93064.75;;;44.58;11.70
15568;BME280;7885;42.596;23.044;2023-10-31T07:49:13;93062.16;;;44.62;11.35
15568;BME280;7885;42.596;23.044;2023-10-31T07:51:40;93064.00;;;44.79;11.58
15568;BME280;7885;42.596;23.044;2023-10-31T07:54:09;93070.38;;;44.78;11.63
15568;BME280;7885;42.596;23.044;2023-10-31T07:56:35;93046.38;;;41.81;12.87
15568;BME280;7885;42.596;23.044;2023-10-31T07:59:03;93055.53;;;42.71;12.76
15568;BME280;7885;42.596;23.044;2023-10-31T08:01:30;93063.84;;;43.15;12.39
15568;BME280;7885;42.596;23.044;2023-10-31T08:03:56;93048.75;;;43.34;12.13
15568;BME280;7885;42.596;23.044;2023-10-31T08:06:23;93045.59;;;41.27;13.80
15568;BME280;7885;42.596;23.044;2023-10-31T08:08:50;93041.38;;;41.01;13.46
15568;BME280;7885;42.596;23.044;2023-10-31T08:11:18;93042.97;;;41.65;13.74
15568;BME280;7885;42.596;23.044;2023-10-31T08:13:45;93045.97;;;42.50;13.44
15568;BME280;7885;42.596;23.044;2023-10-31T08:16:17;93037.28;;;43.44;12.49
15568;BME280;7885;42.596;23.044;2023-10-31T08:18:43;93035.88;;;43.45;12.67
15568;BME280;7885;42.596;23.044;2023-10-31T08:21:11;93027.59;;;40.73;13.51
15568;BME280;7885;42.596;23.044;2023-10-31T08:23:38;93013.47;;;38.77;14.38
15568;BME280;7885;42.596;23.044;2023-10-31T08:26:04;93019.03;;;39.07;14.64
15568;BME280;7885;42.596;23.044;2023-10-31T08:28:33;93014.81;;;37.98;15.02
15568;BME280;7885;42.596;23.044;2023-10-31T08:30:59;93012.28;;;37.11;15.82
15568;BME280;7885;42.596;23.044;2023-10-31T08:33:26;93004.22;;;35.59;17.30
15568;BME280;7885;42.596;23.044;2023-10-31T08:35:52;92999.19;;;33.95;18.61
15568;BME280;7885;42.596;23.044;2023-10-31T08:38:19;92999.72;;;32.35;20.17
15568;BME280;7885;42.596;23.044;2023-10-31T08:40:46;93002.41;;;32.65;20.26
15568;BME280;7885;42.596;23.044;2023-10-31T08:43:14;92993.16;;;32.83;19.76
15568;BME280;7885;42.596;23.044;2023-10-31T08:45:42;92992.22;;;32.00;21.01
15568;BME280;7885;42.596;23.044;2023-10-31T08:48:08;92994.56;;;32.20;20.89
15568;BME280;7885;42.596;23.044;2023-10-31T08:50:35;92974.28;;;32.78;19.91
15568;BME280;7885;42.596;23.044;2023-10-31T08:53:02;92963.88;;;33.89;18.97
15568;BME280;7885;42.596;23.044;2023-10-31T08:55:29;92965.28;;;35.72;18.10
15568;BME280;7885;42.596;23.044;2023-10-31T08:57:56;92976.66;;;36.52;17.19
15568;BME280;7885;42.596;23.044;2023-10-31T09:00:22;92942.84;;;37.12;16.00
15568;BME280;7885;42.596;23.044;2023-10-31T09:02:51;92959.13;;;37.42;15.75
15568;BME280;7885;42.596;23.044;2023-10-31T09:05:17;92945.50;;;35.10;17.52
15568;BME280;7885;42.596;23.044;2023-10-31T09:07:44;92951.53;;;35.56;16.88
15568;BME280;7885;42.596;23.044;2023-10-31T09:10:12;92950.97;;;36.50;16.87
15568;BME280;7885;42.596;23.044;2023-10-31T09:12:39;92954.38;;;37.44;16.10
15568;BME280;7885;42.596;23.044;2023-10-31T09:15:06;92941.19;;;34.55;17.73
15568;BME280;7885;42.596;23.044;2023-10-31T09:17:34;92943.34;;;35.44;17.59
15568;BME280;7885;42.596;23.044;2023-10-31T09:20:03;92926.94;;;33.47;18.56
15568;BME280;7885;42.596;23.044;2023-10-31T09:22:30;92923.44;;;32.14;19.83
15568;BME280;7885;42.596;23.044;2023-10-31T09:24:57;92912.75;;;32.44;19.61
15568;BME280;7885;42.596;23.044;2023-10-31T09:27:24;92911.44;;;34.74;17.81
15568;BME280;7885;42.596;23.044;2023-10-31T09:29:50;92913.91;;;36.47;16.33
15568;BME280;7885;42.596;23.044;2023-10-31T09:32:18;92911.59;;;36.38;16.56
15568;BME280;7885;42.596;23.044;2023-10-31T09:34:44;92911.03;;;35.61;16.41
15568;BME280;7885;42.596;23.044;2023-10-31T09:37:12;92904.47;;;34.75;17.42
15568;BME280;7885;42.596;23.044;2023-10-31T09:39:39;92887.00;;;35.05;17.29
15568;BME280;7885;42.596;23.044;2023-10-31T09:42:06;92887.50;;;36.60;16.40
15568;BME280;7885;42.596;23.044;2023-10-31T09:44:33;92881.97;;;34.90;17.12
15568;BME280;7885;42.596;23.044;2023-10-31T09:47:00;92884.38;;;34.32;17.53
15568;BME280;7885;42.596;23.044;2023-10-31T09:49:27;92877.88;;;33.24;18.05
15568;BME280;7885;42.596;23.044;2023-10-31T09:51:54;92882.69;;;30.56;21.01
15568;BME280;7885;42.596;23.044;2023-10-31T09:54:23;92846.41;;;29.41;22.07
15568;BME280;7885;42.596;23.044;2023-10-31T09:56:52;92866.50;;;28.54;23.29
15568;BME280;7885;42.596;23.044;2023-10-31T09:59:19;92840.16;;;27.46;24.35
15568;BME280;7885;42.596;23.044;2023-10-31T10:01:45;92852.28;;;27.32;25.13
15568;BME280;7885;42.596;23.044;2023-10-31T10:04:12;92813.09;;;27.10;24.59
15568;BME280;7885;42.596;23.044;2023-10-31T10:06:40;92830.19;;;27.29;25.69
15568;BME280;7885;42.596;23.044;2023-10-31T10:09:15;92826.31;;;27.21;25.73
15568;BME280;7885;42.596;23.044;2023-10-31T10:11:44;92820.44;;;28.11;25.02
15568;BME280;7885;42.596;23.044;2023-10-31T10:14:12;92832.88;;;29.45;24.29
15568;BME280;7885;42.596;23.044;2023-10-31T10:16:39;92826.22;;;30.60;22.67
15568;BME280;7885;42.596;23.044;2023-10-31T10:19:23;92817.25;;;30.02;21.93
15568;BME280;7885;42.596;23.044;2023-10-31T10:21:53;92807.50;;;30.92;21.35
15568;BME280;7885;42.596;23.044;2023-10-31T10:24:21;92809.31;;;30.90;20.56
15568;BME280;7885;42.596;23.044;2023-10-31T10:26:49;92801.81;;;30.74;21.03
15568;BME280;7885;42.596;23.044;2023-10-31T10:29:16;92773.13;;;30.81;20.75
15568;BME280;7885;42.596;23.044;2023-10-31T10:31:43;92786.13;;;30.60;21.03
15568;BME280;7885;42.596;23.044;2023-10-31T10:34:10;92779.28;;;30.25;20.94
15568;BME280;7885;42.596;23.044;2023-10-31T10:36:38;92800.28;;;27.63;21.67
15568;BME280;7885;42.596;23.044;2023-10-31T10:39:06;92794.50;;;25.80;22.84
15568;BME280;7885;42.596;23.044;2023-10-31T10:41:35;92757.44;;;25.48;24.42
15568;BME280;7885;42.596;23.044;2023-10-31T10:44:06;92752.78;;;25.59;24.64
15568;BME280;7885;42.596;23.044;2023-10-31T10:46:34;92773.47;;;25.79;25.17
15568;BME280;7885;42.596;23.044;2023-10-31T10:49:04;92763.81;;;25.80;25.36
15568;BME280;7885;42.596;23.044;2023-10-31T10:51:40;92765.72;;;25.94;24.58
15568;BME280;7885;42.596;23.044;2023-10-31T10:54:15;92761.94;;;25.40;25.88
15568;BME280;7885;42.596;23.044;2023-10-31T10:56:46;92749.66;;;25.00;26.40
15568;BME280;7885;42.596;23.044;2023-10-31T10:59:18;92740.22;;;24.52;28.00
15568;BME280;7885;42.596;23.044;2023-10-31T11:01:46;92739.00;;;24.58;27.55
15568;BME280;7885;42.596;23.044;2023-10-31T11:04:14;92744.44;;;24.88;28.02
15568;BME280;7885;42.596;23.044;2023-10-31T11:06:42;92721.78;;;24.54;26.42
15568;BME280;7885;42.596;23.044;2023-10-31T11:09:09;92718.78;;;24.18;27.65
15568;BME280;7885;42.596;23.044;2023-10-31T11:11:37;92723.16;;;24.24;27.84
15568;BME280;7885;42.596;23.044;2023-10-31T11:14:04;92706.22;;;24.22;26.85
15568;BME280;7885;42.596;23.044;2023-10-31T11:16:37;92680.91;;;24.20;26.41
15568;BME280;7885;42.596;23.044;2023-10-31T11:19:07;92679.63;;;24.21;26.64
15568;BME280;7885;42.596;23.044;2023-10-31T11:21:35;92682.41;;;24.21;26.30
15568;BME280;7885;42.596;23.044;2023-10-31T11:24:02;92692.44;;;24.53;26.49
15568;BME280;7885;42.596;23.044;2023-10-31T11:29:50;92669.63;;;24.49;25.43
15568;BME280;7885;42.596;23.044;2023-10-31T11:32:22;92659.44;;;24.67;25.95
15568;BME280;7885;42.596;23.044;2023-10-31T11:34:48;92663.00;;;24.93;25.75
15568;BME280;7885;42.596;23.044;2023-10-31T11:37:20;92657.44;;;24.93;24.71
15568;BME280;7885;42.596;23.044;2023-10-31T11:40:16;92652.50;;;24.56;24.06
15568;BME280;7885;42.596;23.044;2023-10-31T11:42:44;92653.69;;;24.09;24.71
15568;BME280;7885;42.596;23.044;2023-10-31T11:45:26;92654.31;;;23.99;25.61
15568;BME280;7885;42.596;23.044;2023-10-31T11:47:55;92636.25;;;24.29;25.90
15568;BME280;7885;42.596;23.044;2023-10-31T11:50:22;92634.28;;;24.35;25.59
15568;BME280;7885;42.596;23.044;2023-10-31T11:53:02;92638.09;;;24.58;25.61
15568;BME280;7885;42.596;23.044;2023-10-31T11:55:31;92631.31;;;25.16;25.19
15568;BME280;7885;42.596;23.044;2023-10-31T11:57:58;92651.88;;;25.92;24.75
15568;BME280;7885;42.596;23.044;2023-10-31T12:00:25;92651.25;;;26.79;24.06
15568;BME280;7885;42.596;23.044;2023-10-31T12:03:00;92640.91;;;27.74;22.94
15568;BME280;7885;42.596;23.044;2023-10-31T12:05:27;92637.78;;;28.05;22.27
15568;BME280;7885;42.596;23.044;2023-10-31T12:07:55;92631.34;;;28.32;21.97
15568;BME280;7885;42.596;23.044;2023-10-31T12:10:23;92627.34;;;28.11;22.55
15568;BME280;7885;42.596;23.044;2023-10-31T12:12:50;92615.84;;;26.48;23.60
15568;BME280;7885;42.596;23.044;2023-10-31T12:15:17;92623.63;;;25.37;25.09
15568;BME280;7885;42.596;23.044;2023-10-31T12:17:43;92616.56;;;25.10;26.23
15568;BME280;7885;42.596;23.044;2023-10-31T12:20:12;92617.56;;;24.81;26.71
15568;BME280;7885;42.596;23.044;2023-10-31T12:22:39;92616.44;;;24.68;26.85
15568;BME280;7885;42.596;23.044;2023-10-31T12:25:09;92609.69;;;24.28;27.50
15568;BME280;7885;42.596;23.044;2023-10-31T12:27:43;92598.81;;;24.10;27.33
15568;BME280;7885;42.596;23.044;2023-10-31T12:30:11;92605.69;;;23.89;27.49
15568;BME280;7885;42.596;23.044;2023-10-31T12:32:39;92595.44;;;23.60;27.83
15568;BME280;7885;42.596;23.044;2023-10-31T12:35:07;92577.91;;;23.19;29.13
15568;BME280;7885;42.596;23.044;2023-10-31T12:37:37;92607.38;;;23.31;28.45
15568;BME280;7885;42.596;23.044;2023-10-31T12:40:05;92596.56;;;23.68;28.25
15568;BME280;7885;42.596;23.044;2023-10-31T12:42:34;92589.69;;;23.84;28.16
15568;BME280;7885;42.596;23.044;2023-10-31T12:45:01;92593.03;;;23.68;28.03
15568;BME280;7885;42.596;23.044;2023-10-31T12:47:28;92592.44;;;23.43;27.56
15568;BME280;7885;42.596;23.044;2023-10-31T12:50:08;92596.56;;;23.33;27.38
15568;BME280;7885;42.596;23.044;2023-10-31T12:52:50;92624.81;;;23.17;27.95
15568;BME280;7885;42.596;23.044;2023-10-31T12:55:18;92584.66;;;22.98;28.21
15568;BME280;7885;42.596;23.044;2023-10-31T12:57:46;92590.34;;;22.89;29.09
15568;BME280;7885;42.596;23.044;2023-10-31T13:00:14;92588.78;;;22.88;28.09
15568;BME280;7885;42.596;23.044;2023-10-31T13:02:42;92574.72;;;22.47;27.92
15568;BME280;7885;42.596;23.044;2023-10-31T13:05:10;92580.44;;;22.58;28.23
15568;BME280;7885;42.596;23.044;2023-10-31T13:07:38;92595.00;;;22.97;27.97
15568;BME280;7885;42.596;23.044;2023-10-31T13:10:08;92588.97;;;23.48;28.35
15568;BME280;7885;42.596;23.044;2023-10-31T13:12:35;92590.50;;;23.70;27.24
15568;BME280;7885;42.596;23.044;2023-10-31T13:15:03;92583.50;;;23.74;27.60
15568;BME280;7885;42.596;23.044;2023-10-31T13:17:31;92574.25;;;23.83;27.11
15568;BME280;7885;42.596;23.044;2023-10-31T13:19:58;92586.47;;;24.11;26.29
15568;BME280;7885;42.596;23.044;2023-10-31T13:22:25;92586.06;;;24.18;26.78
15568;BME280;7885;42.596;23.044;2023-10-31T13:24:51;92585.44;;;24.08;27.31